createdAt,value
2017-06-03T00:00:01.155Z,12
2017-06-03T00:01:14.086Z,16
2017-06-03T00:02:26.510Z,12
2017-06-03T00:03:39.421Z,12
2017-06-03T00:04:51.843Z,16
2017-06-03T00:06:04.756Z,4
2017-06-03T00:07:17.378Z,4
2017-06-03T00:08:30.291Z,12
2017-06-03T00:09:42.708Z,12
2017-06-03T00:10:55.621Z,12
2017-06-03T00:12:08.065Z,12
2017-06-03T00:13:20.000Z,12
2017-06-03T00:14:32.420Z,12
2017-06-03T00:15:45.334Z,12
2017-06-03T00:16:58.254Z,12
2017-06-03T00:18:11.169Z,12
2017-06-03T00:19:24.082Z,12
2017-06-03T00:20:36.995Z,12
2017-06-03T00:21:49.911Z,12
2017-06-03T00:23:02.824Z,12
2017-06-03T00:24:15.738Z,4
2017-06-03T00:25:28.655Z,16
2017-06-03T00:26:41.086Z,12
2017-06-03T00:27:53.507Z,12
2017-06-03T00:29:06.419Z,12
2017-06-03T00:30:19.329Z,4
2017-06-03T00:31:32.243Z,12
2017-06-03T00:32:45.157Z,16
2017-06-03T00:33:58.071Z,16
2017-06-03T00:35:10.996Z,12
2017-06-03T00:36:23.912Z,4
2017-06-03T00:37:36.828Z,4
2017-06-03T00:38:49.739Z,16
2017-06-03T00:40:02.853Z,12
2017-06-03T00:41:15.276Z,12
2017-06-03T00:42:28.187Z,16
2017-06-03T00:43:40.119Z,16
2017-06-03T00:44:52.540Z,12
2017-06-03T00:46:05.653Z,16
2017-06-03T00:47:18.077Z,16
2017-06-03T00:48:30.990Z,16
2017-06-03T00:49:43.908Z,12
2017-06-03T00:50:56.835Z,12
2017-06-03T00:52:09.754Z,12
2017-06-03T00:53:22.177Z,12
2017-06-03T00:54:35.099Z,12
2017-06-03T00:55:48.008Z,12
2017-06-03T00:57:00.923Z,12
2017-06-03T00:58:13.849Z,12
2017-06-03T00:59:26.765Z,12
2017-06-03T01:00:39.680Z,12
2017-06-03T01:01:52.598Z,12
2017-06-03T01:03:05.511Z,12
2017-06-03T01:04:18.430Z,12
2017-06-03T01:05:31.349Z,12
2017-06-03T01:06:44.263Z,12
2017-06-03T01:07:57.173Z,12
2017-06-03T01:09:10.091Z,12
2017-06-03T01:10:23.007Z,4
2017-06-03T01:11:35.920Z,12
2017-06-03T01:12:48.836Z,12
2017-06-03T01:14:01.749Z,16
2017-06-03T01:15:14.665Z,12
2017-06-03T01:16:26.601Z,12
2017-06-03T01:17:39.517Z,12
2017-06-03T01:18:52.539Z,8
2017-06-03T01:20:05.314Z,4
2017-06-03T01:21:18.089Z,12
2017-06-03T01:22:29.904Z,12
2017-06-03T01:23:42.198Z,12
2017-06-03T01:24:54.490Z,12
2017-06-03T01:26:07.264Z,12
2017-06-03T01:27:20.049Z,12
2017-06-03T01:28:32.345Z,12
2017-06-03T01:29:44.848Z,12
2017-06-03T01:30:57.620Z,12
2017-06-03T01:32:10.406Z,12
2017-06-03T01:33:22.218Z,12
2017-06-03T01:34:34.995Z,16
2017-06-03T01:35:47.775Z,16
2017-06-03T01:37:00.559Z,12
2017-06-03T01:38:12.862Z,12
2017-06-03T01:39:25.684Z,12
2017-06-03T01:40:38.679Z,12
2017-06-03T01:41:51.454Z,12
2017-06-03T01:43:04.230Z,12
2017-06-03T01:44:17.030Z,12
2017-06-03T01:45:29.817Z,12
2017-06-03T01:46:42.112Z,12
2017-06-03T01:47:54.887Z,12
2017-06-03T01:49:07.672Z,12
2017-06-03T01:50:20.456Z,4
2017-06-03T01:51:32.472Z,4
2017-06-03T01:52:45.275Z,12
2017-06-03T01:53:57.571Z,12
2017-06-03T01:55:10.346Z,12
2017-06-03T01:56:23.121Z,12
2017-06-03T01:57:35.901Z,12
2017-06-03T01:58:48.674Z,4
2017-06-03T02:00:01.450Z,4
2017-06-03T02:01:14.228Z,4
2017-06-03T02:02:27.207Z,4
2017-06-03T02:03:40.090Z,4
2017-06-03T02:04:53.007Z,16
2017-06-03T02:06:05.933Z,16
2017-06-03T02:07:18.846Z,12
2017-06-03T02:08:31.761Z,12
2017-06-03T02:09:44.207Z,12
2017-06-03T02:10:57.145Z,12
2017-06-03T02:12:10.062Z,12
2017-06-03T02:13:22.981Z,12
2017-06-03T02:14:35.894Z,12
2017-06-03T02:15:48.808Z,12
2017-06-03T02:17:01.747Z,12
2017-06-03T02:18:14.876Z,12
2017-06-03T02:19:27.788Z,12
2017-06-03T02:20:40.700Z,12
2017-06-03T02:21:53.610Z,12
2017-06-03T02:23:06.724Z,12
2017-06-03T02:24:19.634Z,12
2017-06-03T02:25:32.549Z,12
2017-06-03T02:26:45.462Z,12
2017-06-03T02:27:57.885Z,12
2017-06-03T02:29:10.796Z,12
2017-06-03T02:30:23.716Z,12
2017-06-03T02:31:36.633Z,12
2017-06-03T02:32:49.547Z,12
2017-06-03T02:34:01.971Z,12
2017-06-03T02:35:14.887Z,12
2017-06-03T02:36:27.311Z,12
2017-06-03T02:37:40.225Z,12
2017-06-03T02:38:53.139Z,12
2017-06-03T02:40:06.053Z,12
2017-06-03T02:41:18.975Z,12
2017-06-03T02:42:31.401Z,12
2017-06-03T02:43:44.313Z,4
2017-06-03T02:44:56.752Z,12
2017-06-03T02:46:09.870Z,4
2017-06-03T02:47:22.291Z,12
2017-06-03T02:48:34.627Z,12
2017-06-03T02:49:46.920Z,12
2017-06-03T02:50:59.905Z,12
2017-06-03T02:52:12.685Z,4
2017-06-03T02:53:25.462Z,12
2017-06-03T02:54:37.761Z,12
2017-06-03T02:55:50.544Z,12
2017-06-03T02:57:03.321Z,4
2017-06-03T02:58:15.621Z,4
2017-06-03T02:59:28.404Z,12
2017-06-03T03:00:41.187Z,16
2017-06-03T03:01:54.224Z,12
2017-06-03T03:03:07.129Z,12
2017-06-03T03:04:19.432Z,4
2017-06-03T03:05:32.217Z,4
2017-06-03T03:06:44.993Z,16
2017-06-03T03:07:57.287Z,12
2017-06-03T03:09:10.062Z,12
2017-06-03T03:10:22.364Z,12
2017-06-03T03:11:34.665Z,12
2017-06-03T03:12:47.645Z,12
2017-06-03T03:14:00.427Z,12
2017-06-03T03:15:13.206Z,12
2017-06-03T03:16:25.510Z,12
2017-06-03T03:17:38.291Z,16
2017-06-03T03:18:51.085Z,12
2017-06-03T03:20:03.870Z,12
2017-06-03T03:21:16.657Z,12
2017-06-03T03:22:29.439Z,12
2017-06-03T03:23:42.215Z,12
2017-06-03T03:24:54.988Z,12
2017-06-03T03:26:07.770Z,12
2017-06-03T03:27:20.552Z,12
2017-06-03T03:28:33.329Z,12
2017-06-03T03:29:46.114Z,12
2017-06-03T03:30:58.894Z,12
2017-06-03T03:32:11.682Z,12
2017-06-03T03:33:24.463Z,12
2017-06-03T03:34:36.960Z,12
2017-06-03T03:35:49.746Z,12
2017-06-03T03:37:02.530Z,16
2017-06-03T03:38:15.306Z,12
2017-06-03T03:39:28.082Z,4
2017-06-03T03:40:40.871Z,4
2017-06-03T03:41:53.655Z,4
2017-06-03T03:43:05.949Z,4
2017-06-03T03:44:18.253Z,16
2017-06-03T03:45:31.237Z,12
2017-06-03T03:46:44.025Z,12
2017-06-03T03:47:56.811Z,12
2017-06-03T03:49:09.589Z,12
2017-06-03T03:50:22.362Z,12
2017-06-03T03:51:34.865Z,12
2017-06-03T03:52:47.641Z,12
2017-06-03T03:54:00.419Z,12
2017-06-03T03:55:13.205Z,12
2017-06-03T03:56:25.998Z,12
2017-06-03T03:57:38.775Z,12
2017-06-03T03:58:51.551Z,12
2017-06-03T04:00:03.850Z,12
2017-06-03T04:01:16.645Z,12
2017-06-03T04:02:28.956Z,12
2017-06-03T04:03:41.259Z,12
2017-06-03T04:04:53.204Z,12
2017-06-03T04:06:06.139Z,4
2017-06-03T04:07:19.127Z,12
2017-06-03T04:08:31.928Z,12
2017-06-03T04:09:44.337Z,12
2017-06-03T04:10:57.270Z,12
2017-06-03T04:12:10.275Z,12
2017-06-03T04:13:23.161Z,12
2017-06-03T04:14:35.466Z,12
2017-06-03T04:15:48.254Z,12
2017-06-03T04:17:01.041Z,12
2017-06-03T04:18:14.038Z,4
2017-06-03T04:19:26.947Z,12
2017-06-03T04:20:39.362Z,12
2017-06-03T04:21:52.274Z,12
2017-06-03T04:23:05.184Z,12
2017-06-03T04:24:17.610Z,12
2017-06-03T04:25:30.034Z,12
2017-06-03T04:26:42.947Z,12
2017-06-03T04:27:55.376Z,12
2017-06-03T04:29:08.013Z,12
2017-06-03T04:30:20.445Z,12
2017-06-03T04:31:32.865Z,12
2017-06-03T04:32:45.775Z,12
2017-06-03T04:33:58.688Z,12
2017-06-03T04:35:11.800Z,12
2017-06-03T04:36:24.713Z,12
2017-06-03T04:37:37.627Z,12
2017-06-03T04:38:50.048Z,12
2017-06-03T04:40:02.669Z,12
2017-06-03T04:41:15.581Z,12
2017-06-03T04:42:28.509Z,12
2017-06-03T04:43:41.421Z,12
2017-06-03T04:44:54.336Z,12
2017-06-03T04:46:07.265Z,12
2017-06-03T04:47:20.183Z,12
2017-06-03T04:48:32.615Z,12
2017-06-03T04:49:45.038Z,12
2017-06-03T04:50:58.164Z,12
2017-06-03T04:52:11.089Z,12
2017-06-03T04:53:24.006Z,12
2017-06-03T04:54:36.920Z,12
2017-06-03T04:55:49.864Z,12
2017-06-03T04:57:02.805Z,12
2017-06-03T04:58:15.722Z,12
2017-06-03T04:59:28.633Z,12
2017-06-03T05:00:41.055Z,16
2017-06-03T05:01:54.166Z,8
2017-06-03T05:03:07.064Z,12
2017-06-03T05:04:19.842Z,12
2017-06-03T05:05:32.618Z,12
2017-06-03T05:06:45.591Z,12
2017-06-03T05:07:58.364Z,12
2017-06-03T05:09:11.138Z,12
2017-06-03T05:10:23.911Z,4
2017-06-03T05:11:36.686Z,4
2017-06-03T05:12:49.662Z,12
2017-06-03T05:14:02.440Z,16
2017-06-03T05:15:15.219Z,12
2017-06-03T05:16:27.518Z,12
2017-06-03T05:17:39.814Z,4
2017-06-03T05:18:52.786Z,4
2017-06-03T05:20:05.079Z,4
2017-06-03T05:21:17.871Z,16
2017-06-03T05:22:30.646Z,16
2017-06-03T05:23:43.420Z,12
2017-06-03T05:24:56.195Z,12
2017-06-03T05:26:08.973Z,12
2017-06-03T05:27:21.796Z,12
2017-06-03T05:28:34.567Z,12
2017-06-03T05:29:47.541Z,12
2017-06-03T05:31:00.317Z,12
2017-06-03T05:32:12.612Z,12
2017-06-03T05:33:24.903Z,12
2017-06-03T05:34:37.197Z,12
2017-06-03T05:35:49.970Z,12
2017-06-03T05:37:02.744Z,12
2017-06-03T05:38:15.516Z,12
2017-06-03T05:39:27.808Z,12
2017-06-03T05:40:40.611Z,12
2017-06-03T05:41:52.904Z,12
2017-06-03T05:43:05.678Z,12
2017-06-03T05:44:18.450Z,12
2017-06-03T05:45:31.424Z,12
2017-06-03T05:46:44.200Z,12
2017-06-03T05:47:56.980Z,12
2017-06-03T05:49:09.358Z,12
2017-06-03T05:50:22.248Z,12
2017-06-03T05:51:34.848Z,12
2017-06-03T05:52:47.252Z,12
2017-06-03T05:53:59.652Z,12
2017-06-03T05:55:12.543Z,16
2017-06-03T05:56:25.448Z,12
2017-06-03T05:57:38.342Z,12
2017-06-03T05:58:51.235Z,12
2017-06-03T06:00:04.126Z,12
2017-06-03T06:01:17.224Z,12
2017-06-03T06:02:30.120Z,12
2017-06-03T06:03:42.037Z,12
2017-06-03T06:04:54.937Z,12
2017-06-03T06:06:07.833Z,12
2017-06-03T06:07:20.435Z,12
2017-06-03T06:08:33.325Z,12
2017-06-03T06:09:46.229Z,12
2017-06-03T06:10:59.124Z,12
2017-06-03T06:12:12.021Z,12
2017-06-03T06:13:24.922Z,12
2017-06-03T06:14:37.817Z,12
2017-06-03T06:15:50.715Z,4
2017-06-03T06:17:03.616Z,16
2017-06-03T06:18:16.219Z,12
2017-06-03T06:19:29.150Z,12
2017-06-03T06:20:41.060Z,12
2017-06-03T06:21:53.957Z,12
2017-06-03T06:23:06.854Z,12
2017-06-03T06:24:19.745Z,12
2017-06-03T06:25:32.638Z,12
2017-06-03T06:26:45.044Z,12
2017-06-03T06:27:57.944Z,12
2017-06-03T06:29:11.043Z,12
2017-06-03T06:30:23.937Z,16
2017-06-03T06:31:36.345Z,12
2017-06-03T06:32:49.237Z,12
2017-06-03T06:34:01.641Z,12
2017-06-03T06:35:14.537Z,12
2017-06-03T06:36:27.437Z,12
2017-06-03T06:37:40.350Z,12
2017-06-03T06:38:53.242Z,12
2017-06-03T06:40:05.841Z,12
2017-06-03T06:41:18.272Z,12
2017-06-03T06:42:31.163Z,12
2017-06-03T06:43:44.092Z,12
2017-06-03T06:44:56.495Z,12
2017-06-03T06:46:09.425Z,12
2017-06-03T06:47:22.326Z,12
2017-06-03T06:48:34.729Z,12
2017-06-03T06:49:47.136Z,12
2017-06-03T06:51:00.028Z,12
2017-06-03T06:52:12.435Z,16
2017-06-03T06:53:25.323Z,12
2017-06-03T06:54:38.216Z,12
2017-06-03T06:55:51.111Z,12
2017-06-03T06:57:04.004Z,12
2017-06-03T06:58:16.897Z,12
2017-06-03T06:59:29.786Z,12
2017-06-03T07:00:42.191Z,12
2017-06-03T07:01:55.282Z,12
2017-06-03T07:03:08.178Z,12
2017-06-03T07:04:21.067Z,12
2017-06-03T07:05:33.960Z,12
2017-06-03T07:06:46.853Z,12
2017-06-03T07:07:59.744Z,12
2017-06-03T07:09:12.638Z,12
2017-06-03T07:10:25.534Z,12
2017-06-03T07:11:38.430Z,4
2017-06-03T07:12:51.036Z,12
2017-06-03T07:14:03.930Z,12
2017-06-03T07:15:16.823Z,12
2017-06-03T07:16:29.718Z,12
2017-06-03T07:17:42.611Z,12
2017-06-03T07:18:55.707Z,12
2017-06-03T07:20:08.600Z,12
2017-06-03T07:21:21.506Z,12
2017-06-03T07:22:34.402Z,12
2017-06-03T07:23:47.492Z,12
2017-06-03T07:25:00.381Z,12
2017-06-03T07:26:12.790Z,12
2017-06-03T07:27:25.684Z,12
2017-06-03T07:28:38.568Z,12
2017-06-03T07:29:51.176Z,12
2017-06-03T07:31:04.071Z,12
2017-06-03T07:32:16.983Z,12
2017-06-03T07:33:29.874Z,12
2017-06-03T07:34:42.480Z,12
2017-06-03T07:35:55.376Z,12
2017-06-03T07:37:08.264Z,12
2017-06-03T07:38:20.237Z,12
2017-06-03T07:39:32.646Z,12
2017-06-03T07:40:45.544Z,12
2017-06-03T07:41:58.430Z,12
2017-06-03T07:43:11.325Z,12
2017-06-03T07:44:24.221Z,12
2017-06-03T07:45:36.823Z,12
2017-06-03T07:46:49.714Z,4
2017-06-03T07:48:02.609Z,4
2017-06-03T07:49:15.515Z,16
2017-06-03T07:50:27.923Z,12
2017-06-03T07:51:41.019Z,12
2017-06-03T07:52:53.424Z,12
2017-06-03T07:54:06.325Z,12
2017-06-03T07:55:19.230Z,12
2017-06-03T07:56:31.837Z,12
2017-06-03T07:57:43.749Z,12
2017-06-03T07:58:56.638Z,12
2017-06-03T08:00:09.622Z,12
2017-06-03T08:01:22.659Z,16
2017-06-03T08:02:35.403Z,12
2017-06-03T08:03:48.438Z,16
2017-06-03T08:05:01.472Z,12
2017-06-03T08:06:14.529Z,12
2017-06-03T08:07:27.566Z,12
2017-06-03T08:08:40.604Z,12
2017-06-03T08:09:53.169Z,12
2017-06-03T08:11:06.202Z,12
2017-06-03T08:12:19.238Z,12
2017-06-03T08:13:31.975Z,12
2017-06-03T08:14:45.010Z,12
2017-06-03T08:15:58.050Z,12
2017-06-03T08:17:10.588Z,12
2017-06-03T08:18:23.827Z,12
2017-06-03T08:19:36.364Z,12
2017-06-03T08:20:49.400Z,4
2017-06-03T08:22:01.939Z,12
2017-06-03T08:23:14.478Z,16
2017-06-03T08:24:27.208Z,16
2017-06-03T08:25:39.760Z,12
2017-06-03T08:26:52.294Z,4
2017-06-03T08:28:04.837Z,4
2017-06-03T08:29:17.874Z,4
2017-06-03T08:30:30.411Z,12
2017-06-03T08:31:43.443Z,12
2017-06-03T08:32:56.478Z,12
2017-06-03T08:34:09.717Z,12
2017-06-03T08:35:22.241Z,12
2017-06-03T08:36:35.219Z,12
2017-06-03T08:37:47.703Z,12
2017-06-03T08:38:59.689Z,12
2017-06-03T08:40:12.866Z,12
2017-06-03T08:41:25.347Z,12
2017-06-03T08:42:37.829Z,12
2017-06-03T08:43:50.309Z,12
2017-06-03T08:45:03.286Z,12
2017-06-03T08:46:15.766Z,12
2017-06-03T08:47:27.753Z,12
2017-06-03T08:48:40.246Z,16
2017-06-03T08:49:53.238Z,12
2017-06-03T08:51:05.736Z,12
2017-06-03T08:52:18.739Z,12
2017-06-03T08:53:31.731Z,12
2017-06-03T08:54:44.722Z,12
2017-06-03T08:55:57.913Z,12
2017-06-03T08:57:10.909Z,12
2017-06-03T08:58:23.406Z,12
2017-06-03T08:59:36.395Z,12
2017-06-03T09:00:49.387Z,12
2017-06-03T09:02:02.579Z,12
2017-06-03T09:03:14.580Z,12
2017-06-03T09:04:27.568Z,12
2017-06-03T09:05:40.065Z,12
2017-06-03T09:06:52.560Z,12
2017-06-03T09:08:05.549Z,12
2017-06-03T09:09:18.049Z,12
2017-06-03T09:10:31.040Z,12
2017-06-03T09:11:43.978Z,12
2017-06-03T09:12:56.888Z,12
2017-06-03T09:14:09.801Z,12
2017-06-03T09:15:22.714Z,12
2017-06-03T09:16:35.625Z,12
2017-06-03T09:17:48.740Z,12
2017-06-03T09:19:01.167Z,12
2017-06-03T09:20:13.591Z,12
2017-06-03T09:21:26.018Z,12
2017-06-03T09:22:38.443Z,12
2017-06-03T09:23:51.355Z,8
2017-06-03T09:25:03.776Z,4
2017-06-03T09:26:16.688Z,12
2017-06-03T09:27:29.607Z,16
2017-06-03T09:28:42.522Z,4
2017-06-03T09:29:55.433Z,8
2017-06-03T09:31:08.353Z,4
2017-06-03T09:32:21.262Z,16
2017-06-03T09:33:34.157Z,16
2017-06-03T09:34:47.251Z,16
2017-06-03T09:36:00.173Z,16
2017-06-03T09:37:13.066Z,20
2017-06-03T09:38:25.466Z,20
2017-06-03T09:39:38.354Z,8
2017-06-03T09:40:50.957Z,12
2017-06-03T09:42:03.846Z,12
2017-06-03T09:43:15.756Z,16
2017-06-03T09:44:28.675Z,16
2017-06-03T09:45:41.772Z,20
2017-06-03T09:46:54.665Z,20
2017-06-03T09:48:07.563Z,24
2017-06-03T09:49:20.454Z,24
2017-06-03T09:50:32.884Z,32
2017-06-03T09:51:45.989Z,32
2017-06-03T09:52:58.389Z,36
2017-06-03T09:54:11.288Z,40
2017-06-03T09:55:24.189Z,44
2017-06-03T09:56:37.077Z,48
2017-06-03T09:57:48.992Z,60
2017-06-03T09:59:01.884Z,60
2017-06-03T10:00:14.785Z,68
2017-06-03T10:01:27.186Z,68
2017-06-03T10:02:40.283Z,68
2017-06-03T10:03:52.689Z,76
2017-06-03T10:05:05.595Z,84
2017-06-03T10:06:18.039Z,84
2017-06-03T10:07:30.443Z,84
2017-06-03T10:08:43.334Z,88
2017-06-03T10:09:55.738Z,96
2017-06-03T10:11:08.631Z,100
2017-06-03T10:12:21.038Z,112
2017-06-03T10:13:33.466Z,108
2017-06-03T10:14:46.361Z,108
2017-06-03T10:15:58.766Z,108
2017-06-03T10:17:11.661Z,108
2017-06-03T10:18:24.758Z,112
2017-06-03T10:19:37.163Z,116
2017-06-03T10:20:50.064Z,116
2017-06-03T10:22:02.956Z,116
2017-06-03T10:23:15.359Z,124
2017-06-03T10:24:28.483Z,120
2017-06-03T10:25:41.384Z,128
2017-06-03T10:26:54.278Z,124
2017-06-03T10:28:06.682Z,128
2017-06-03T10:29:19.281Z,132
2017-06-03T10:30:31.685Z,132
2017-06-03T10:31:44.582Z,132
2017-06-03T10:32:57.477Z,136
2017-06-03T10:34:09.878Z,136
2017-06-03T10:35:22.983Z,136
2017-06-03T10:36:35.877Z,140
2017-06-03T10:37:48.280Z,144
2017-06-03T10:39:00.691Z,148
2017-06-03T10:40:13.588Z,152
2017-06-03T10:41:26.485Z,156
2017-06-03T10:42:39.373Z,152
2017-06-03T10:43:51.776Z,156
2017-06-03T10:45:04.668Z,160
2017-06-03T10:46:17.281Z,164
2017-06-03T10:47:29.682Z,176
2017-06-03T10:48:42.574Z,180
2017-06-03T10:49:55.460Z,200
2017-06-03T10:51:07.870Z,184
2017-06-03T10:52:20.769Z,184
2017-06-03T10:53:33.172Z,176
2017-06-03T10:54:45.582Z,176
2017-06-03T10:55:57.992Z,188
2017-06-03T10:57:10.601Z,184
2017-06-03T10:58:23.497Z,188
2017-06-03T10:59:35.899Z,196
2017-06-03T11:00:48.308Z,208
2017-06-03T11:02:00.709Z,200
2017-06-03T11:03:13.536Z,196
2017-06-03T11:04:25.834Z,208
2017-06-03T11:05:38.612Z,216
2017-06-03T11:06:51.387Z,216
2017-06-03T11:08:04.160Z,212
2017-06-03T11:09:16.452Z,216
2017-06-03T11:10:28.287Z,236
2017-06-03T11:11:41.076Z,240
2017-06-03T11:12:53.852Z,220
2017-06-03T11:14:06.625Z,252
2017-06-03T11:15:19.401Z,272
2017-06-03T11:16:32.184Z,244
2017-06-03T11:17:44.963Z,220
2017-06-03T11:18:57.939Z,224
2017-06-03T11:20:10.717Z,228
2017-06-03T11:21:23.493Z,276
2017-06-03T11:22:35.302Z,256
2017-06-03T11:23:48.078Z,256
2017-06-03T11:25:00.852Z,248
2017-06-03T11:26:13.169Z,296
2017-06-03T11:27:25.461Z,396
2017-06-03T11:28:37.756Z,552
2017-06-03T11:29:50.535Z,736
2017-06-03T11:31:03.334Z,912
2017-06-03T11:32:15.627Z,1004
2017-06-03T11:33:28.401Z,1088
2017-06-03T11:34:41.233Z,1136
2017-06-03T11:35:54.089Z,828
2017-06-03T11:37:06.456Z,1272
2017-06-03T11:38:19.317Z,1196
2017-06-03T11:39:32.177Z,392
2017-06-03T11:40:44.744Z,604
2017-06-03T11:41:57.117Z,1256
2017-06-03T11:43:09.975Z,1220
2017-06-03T11:44:22.833Z,1444
2017-06-03T11:45:35.696Z,1392
2017-06-03T11:46:48.556Z,1384
2017-06-03T11:48:01.417Z,1288
2017-06-03T11:49:13.882Z,1456
2017-06-03T11:50:26.877Z,1308
2017-06-03T11:51:39.575Z,1196
2017-06-03T11:52:52.569Z,1488
2017-06-03T11:54:05.561Z,1504
2017-06-03T11:55:18.554Z,1528
2017-06-03T11:56:31.549Z,1344
2017-06-03T11:57:44.547Z,1624
2017-06-03T11:58:57.540Z,1608
2017-06-03T12:00:10.541Z,1656
2017-06-03T12:01:23.735Z,1600
2017-06-03T12:02:36.233Z,1636
2017-06-03T12:03:49.224Z,1584
2017-06-03T12:05:01.724Z,1548
2017-06-03T12:06:14.230Z,1372
2017-06-03T12:07:26.733Z,1672
2017-06-03T12:08:39.728Z,1256
2017-06-03T12:09:52.671Z,1576
2017-06-03T12:11:05.588Z,1760
2017-06-03T12:12:18.502Z,1764
2017-06-03T12:13:30.936Z,1740
2017-06-03T12:14:43.853Z,1788
2017-06-03T12:15:56.772Z,1832
2017-06-03T12:17:09.202Z,1864
2017-06-03T12:18:22.115Z,1860
2017-06-03T12:19:35.033Z,1904
2017-06-03T12:20:47.947Z,1880
2017-06-03T12:22:00.860Z,1916
2017-06-03T12:23:13.775Z,1908
2017-06-03T12:24:26.209Z,1924
2017-06-03T12:25:39.124Z,1952
2017-06-03T12:26:51.552Z,1972
2017-06-03T12:28:04.466Z,1980
2017-06-03T12:29:17.582Z,1968
2017-06-03T12:30:30.501Z,1944
2017-06-03T12:31:43.419Z,1920
2017-06-03T12:32:55.846Z,1920
2017-06-03T12:34:08.260Z,1908
2017-06-03T12:35:21.174Z,1896
2017-06-03T12:36:34.070Z,1844
2017-06-03T12:37:46.972Z,1856
2017-06-03T12:38:59.866Z,1820
2017-06-03T12:40:12.268Z,1816
2017-06-03T12:41:25.167Z,1776
2017-06-03T12:42:38.067Z,1792
2017-06-03T12:43:50.960Z,1768
2017-06-03T12:45:03.366Z,1732
2017-06-03T12:46:16.294Z,1748
2017-06-03T12:47:28.700Z,1720
2017-06-03T12:48:41.600Z,1676
2017-06-03T12:49:54.009Z,1648
2017-06-03T12:51:07.110Z,1636
2017-06-03T12:52:20.014Z,1640
2017-06-03T12:53:32.429Z,1624
2017-06-03T12:54:44.836Z,1644
2017-06-03T12:55:57.730Z,1628
2017-06-03T12:57:10.629Z,1636
2017-06-03T12:58:23.527Z,1624
2017-06-03T12:59:35.937Z,1612
2017-06-03T13:00:48.350Z,1564
2017-06-03T13:02:00.759Z,1532
2017-06-03T13:03:13.654Z,1512
2017-06-03T13:04:26.558Z,1480
2017-06-03T13:05:39.451Z,1444
2017-06-03T13:06:51.858Z,1412
2017-06-03T13:08:04.265Z,1336
2017-06-03T13:09:16.668Z,1320
2017-06-03T13:10:29.564Z,1292
2017-06-03T13:11:41.480Z,1268
2017-06-03T13:12:54.138Z,1204
2017-06-03T13:14:07.033Z,1196
2017-06-03T13:15:19.964Z,1196
2017-06-03T13:16:32.854Z,1188
2017-06-03T13:17:45.754Z,1164
2017-06-03T13:18:58.691Z,1156
2017-06-03T13:20:10.629Z,1148
2017-06-03T13:21:23.058Z,1156
2017-06-03T13:22:35.974Z,1136
2017-06-03T13:23:48.598Z,1136
2017-06-03T13:25:01.511Z,1124
2017-06-03T13:26:14.430Z,1140
2017-06-03T13:27:27.348Z,1120
2017-06-03T13:28:40.266Z,1112
2017-06-03T13:29:53.181Z,1108
2017-06-03T13:31:06.096Z,1072
2017-06-03T13:32:18.525Z,1092
2017-06-03T13:33:31.441Z,1108
2017-06-03T13:34:44.067Z,1092
2017-06-03T13:35:56.985Z,1080
2017-06-03T13:37:09.908Z,1072
2017-06-03T13:38:22.333Z,1080
2017-06-03T13:39:35.252Z,1080
2017-06-03T13:40:48.380Z,1080
2017-06-03T13:42:01.298Z,1092
2017-06-03T13:43:14.212Z,1068
2017-06-03T13:44:26.639Z,1072
2017-06-03T13:45:39.752Z,1108
2017-06-03T13:46:52.176Z,1112
2017-06-03T13:48:05.092Z,1104
2017-06-03T13:49:18.016Z,1116
2017-06-03T13:50:30.940Z,1108
2017-06-03T13:51:43.567Z,1096
2017-06-03T13:52:55.990Z,1096
2017-06-03T13:54:08.414Z,1088
2017-06-03T13:55:20.837Z,1096
2017-06-03T13:56:33.262Z,1096
2017-06-03T13:57:46.211Z,1088
2017-06-03T13:58:59.123Z,1124
2017-06-03T14:00:12.058Z,1120
2017-06-03T14:01:24.979Z,1140
2017-06-03T14:02:37.611Z,1116
2017-06-03T14:03:49.944Z,1148
2017-06-03T14:05:02.723Z,1184
2017-06-03T14:06:15.033Z,1188
2017-06-03T14:07:27.816Z,1192
2017-06-03T14:08:40.593Z,1200
2017-06-03T14:09:53.377Z,1204
2017-06-03T14:11:06.193Z,1200
2017-06-03T14:12:18.490Z,1216
2017-06-03T14:13:30.992Z,1216
2017-06-03T14:14:43.782Z,1220
2017-06-03T14:15:56.561Z,1232
2017-06-03T14:17:08.889Z,1256
2017-06-03T14:18:21.669Z,1244
2017-06-03T14:19:33.968Z,1268
2017-06-03T14:20:46.747Z,1280
2017-06-03T14:21:59.526Z,1276
2017-06-03T14:23:10.859Z,1292
2017-06-03T14:24:23.636Z,1300
2017-06-03T14:25:36.438Z,1316
2017-06-03T14:26:49.226Z,1320
2017-06-03T14:28:02.003Z,1320
2017-06-03T14:29:14.980Z,1332
2017-06-03T14:30:27.766Z,1324
2017-06-03T14:31:40.545Z,1328
2017-06-03T14:32:53.323Z,1332
2017-06-03T14:34:06.196Z,1332
2017-06-03T14:35:19.321Z,1328
2017-06-03T14:36:32.250Z,1320
2017-06-03T14:37:44.683Z,1312
2017-06-03T14:38:57.608Z,1304
2017-06-03T14:40:10.532Z,1284
2017-06-03T14:41:22.965Z,1248
2017-06-03T14:42:35.887Z,1240
2017-06-03T14:43:48.315Z,1248
2017-06-03T14:45:00.742Z,1248
2017-06-03T14:46:13.664Z,1252
2017-06-03T14:47:26.584Z,1232
2017-06-03T14:48:39.024Z,1220
2017-06-03T14:49:51.462Z,1204
2017-06-03T14:51:03.601Z,1196
2017-06-03T14:52:16.042Z,1168
2017-06-03T14:53:28.490Z,1152
2017-06-03T14:54:41.415Z,1136
2017-06-03T14:55:54.348Z,1132
2017-06-03T14:57:07.274Z,1120
2017-06-03T14:58:19.710Z,1096
2017-06-03T14:59:31.652Z,1088
2017-06-03T15:00:43.100Z,1080
2017-06-03T15:01:55.730Z,1080
2017-06-03T15:03:08.158Z,1080
2017-06-03T15:04:20.598Z,1072
2017-06-03T15:05:33.526Z,1060
2017-06-03T15:06:46.451Z,1056
2017-06-03T15:07:58.886Z,1056
2017-06-03T15:09:11.366Z,1036
2017-06-03T15:10:24.295Z,1024
2017-06-03T15:11:36.731Z,1012
2017-06-03T15:12:49.856Z,1016
2017-06-03T15:14:02.788Z,1008
2017-06-03T15:15:15.712Z,996
2017-06-03T15:16:28.640Z,976
2017-06-03T15:17:41.069Z,964
2017-06-03T15:18:54.023Z,944
2017-06-03T15:20:06.953Z,932
2017-06-03T15:21:19.383Z,912
2017-06-03T15:22:31.814Z,904
2017-06-03T15:23:44.940Z,868
2017-06-03T15:24:57.380Z,848
2017-06-03T15:26:09.324Z,820
2017-06-03T15:27:21.756Z,808
2017-06-03T15:28:34.683Z,788
2017-06-03T15:29:47.610Z,760
2017-06-03T15:31:00.539Z,744
2017-06-03T15:32:13.461Z,728
2017-06-03T15:33:25.906Z,704
2017-06-03T15:34:38.054Z,676
2017-06-03T15:35:50.983Z,652
2017-06-03T15:37:03.932Z,640
2017-06-03T15:38:16.366Z,628
2017-06-03T15:39:29.300Z,612
2017-06-03T15:40:42.234Z,604
2017-06-03T15:41:54.673Z,592
2017-06-03T15:43:07.597Z,584
2017-06-03T15:44:19.046Z,580
2017-06-03T15:45:31.893Z,572
2017-06-03T15:46:43.233Z,568
2017-06-03T15:47:55.531Z,556
2017-06-03T15:49:08.312Z,544
2017-06-03T15:50:21.096Z,532
2017-06-03T15:51:33.882Z,540
2017-06-03T15:52:46.659Z,536
2017-06-03T15:53:59.440Z,532
2017-06-03T15:55:12.238Z,524
2017-06-03T15:56:25.033Z,516
2017-06-03T15:57:37.820Z,508
2017-06-03T15:58:50.603Z,500
2017-06-03T16:00:03.390Z,492
2017-06-03T16:01:15.691Z,484
2017-06-03T16:02:28.700Z,484
2017-06-03T16:03:40.999Z,480
2017-06-03T16:04:53.299Z,472
2017-06-03T16:06:06.111Z,468
2017-06-03T16:07:18.901Z,456
2017-06-03T16:08:31.201Z,464
2017-06-03T16:09:43.988Z,472
2017-06-03T16:10:56.297Z,472
2017-06-03T16:12:09.305Z,480
2017-06-03T16:13:21.650Z,484
2017-06-03T16:14:34.433Z,484
2017-06-03T16:15:45.773Z,476
2017-06-03T16:16:58.085Z,472
2017-06-03T16:18:10.665Z,476
2017-06-03T16:19:23.086Z,484
2017-06-03T16:20:35.989Z,488
2017-06-03T16:21:48.920Z,484
2017-06-03T16:23:01.825Z,476
2017-06-03T16:24:14.730Z,472
2017-06-03T16:25:27.634Z,472
2017-06-03T16:26:40.531Z,480
2017-06-03T16:27:53.431Z,472
2017-06-03T16:29:06.331Z,460
2017-06-03T16:30:19.230Z,460
2017-06-03T16:31:32.129Z,456
2017-06-03T16:32:44.538Z,464
2017-06-03T16:33:57.438Z,464
2017-06-03T16:35:10.537Z,468
2017-06-03T16:36:22.945Z,456
2017-06-03T16:37:35.354Z,448
2017-06-03T16:38:48.259Z,436
2017-06-03T16:40:01.358Z,436
2017-06-03T16:41:14.261Z,436
2017-06-03T16:42:27.163Z,436
2017-06-03T16:43:40.062Z,436
2017-06-03T16:44:52.960Z,456
2017-06-03T16:46:05.864Z,480
2017-06-03T16:47:18.766Z,488
2017-06-03T16:48:31.665Z,480
2017-06-03T16:49:44.562Z,480
2017-06-03T16:50:57.661Z,492
2017-06-03T16:52:10.559Z,488
2017-06-03T16:53:23.455Z,468
2017-06-03T16:54:36.357Z,440
2017-06-03T16:55:48.766Z,408